Stanton, New Jersey
Current Conditions -  °F | °C
As of 7:53 PM on Monday 22 Dec 2014 (Local Time) from KSMQ Reporting Station
Haze Haze  
Wind Chill: 39°   Ceiling: 800
Heat Index: 42°   Visibility: 6mi
Dew Point: 38°   Wind: 5mph
Humidity: 85%   Direction: 60°ENE
Pressure: 30.18"   Gusts: NA
Location:  40.57°N, 74.84°W
Report Text: KSMQ 230053Z AUTO 06004KT 6SM BR OVC008 06/03 A3018 RMK AO2 SLP222 T00560033
Loading
Personal Weather Stations






























Interactive Weather Map New forecast layout! Learn more

10-Day Weather Forecast

Advertisements
Track Severe Weather on mobile